Brevard, North Carolina
Current Conditions -  °F | °C
As of 12:54 PM on Friday 28 Nov 2014 (Local Time) from KAVL Reporting Station
Clear Clear  
Wind Chill: 32°   Ceiling: Unl
Heat Index: 38°   Visibility: 10mi
Dew Point: 18°   Wind: 8mph
Humidity: 44%   Direction: 330°NNW
Pressure: 30.27"   Gusts: NA
Location:  35.23°N, 82.73°W
Report Text: KAVL 281754Z 33007KT 10SM CLR 03/M08 A3027 RMK AO2 SLP262 T00331078 10039 21044 58023
Loading
Personal Weather Stations






























Interactive Weather Map New forecast layout! Learn more

10-Day Weather Forecast

Advertisements
Track Severe Weather on mobile